sensor_id;sensor_type;location;lat;lon;timestamp;temperature;humidity
13328;DHT22;6733;51.044;3.746;2023-10-31T00:00:17;12.60;99.90
13328;DHT22;6733;51.044;3.746;2023-10-31T00:02:43;12.60;99.90
13328;DHT22;6733;51.044;3.746;2023-10-31T00:05:08;12.60;99.90
13328;DHT22;6733;51.044;3.746;2023-10-31T00:07:34;12.60;99.90
13328;DHT22;6733;51.044;3.746;2023-10-31T00:10:00;12.70;99.90
13328;DHT22;6733;51.044;3.746;2023-10-31T00:12:26;12.70;99.90
13328;DHT22;6733;51.044;3.746;2023-10-31T00:14:52;12.70;99.90
13328;DHT22;6733;51.044;3.746;2023-10-31T00:17:18;12.70;99.90
13328;DHT22;6733;51.044;3.746;2023-10-31T00:19:44;12.80;99.90
13328;DHT22;6733;51.044;3.746;2023-10-31T00:22:11;12.80;99.90
13328;DHT22;6733;51.044;3.746;2023-10-31T00:24:37;12.80;99.90
13328;DHT22;6733;51.044;3.746;2023-10-31T00:27:02;12.80;99.90
13328;DHT22;6733;51.044;3.746;2023-10-31T00:29:28;12.80;99.90
13328;DHT22;6733;51.044;3.746;2023-10-31T00:31:55;12.80;99.90
13328;DHT22;6733;51.044;3.746;2023-10-31T00:34:21;12.80;99.90
13328;DHT22;6733;51.044;3.746;2023-10-31T00:36:47;12.80;99.90
13328;DHT22;6733;51.044;3.746;2023-10-31T00:39:13;12.70;99.90
13328;DHT22;6733;51.044;3.746;2023-10-31T00:41:40;12.70;99.90
13328;DHT22;6733;51.044;3.746;2023-10-31T00:44:10;12.60;99.90
13328;DHT22;6733;51.044;3.746;2023-10-31T00:46:36;12.60;99.90
13328;DHT22;6733;51.044;3.746;2023-10-31T00:49:02;12.50;99.90
13328;DHT22;6733;51.044;3.746;2023-10-31T00:51:28;12.50;99.90
13328;DHT22;6733;51.044;3.746;2023-10-31T00:53:54;12.40;99.90
13328;DHT22;6733;51.044;3.746;2023-10-31T00:56:20;12.40;99.90
13328;DHT22;6733;51.044;3.746;2023-10-31T00:58:46;12.40;99.90
13328;DHT22;6733;51.044;3.746;2023-10-31T01:01:11;12.40;99.90
13328;DHT22;6733;51.044;3.746;2023-10-31T01:03:37;12.40;99.90
13328;DHT22;6733;51.044;3.746;2023-10-31T01:06:03;12.40;99.90
13328;DHT22;6733;51.044;3.746;2023-10-31T01:08:29;12.40;99.90
13328;DHT22;6733;51.044;3.746;2023-10-31T01:10:56;12.40;99.90
13328;DHT22;6733;51.044;3.746;2023-10-31T01:13:22;12.40;99.90
13328;DHT22;6733;51.044;3.746;2023-10-31T01:15:48;12.40;99.90
13328;DHT22;6733;51.044;3.746;2023-10-31T01:18:14;12.40;99.90
13328;DHT22;6733;51.044;3.746;2023-10-31T01:20:40;12.40;99.90
13328;DHT22;6733;51.044;3.746;2023-10-31T01:23:07;12.50;99.90
13328;DHT22;6733;51.044;3.746;2023-10-31T01:25:33;12.60;99.90
13328;DHT22;6733;51.044;3.746;2023-10-31T01:27:59;12.50;99.90
13328;DHT22;6733;51.044;3.746;2023-10-31T01:30:25;12.60;99.90
13328;DHT22;6733;51.044;3.746;2023-10-31T01:32:51;12.50;99.90
13328;DHT22;6733;51.044;3.746;2023-10-31T01:35:17;12.50;99.90
13328;DHT22;6733;51.044;3.746;2023-10-31T01:37:43;12.50;99.90
13328;DHT22;6733;51.044;3.746;2023-10-31T01:40:13;12.40;99.90
13328;DHT22;6733;51.044;3.746;2023-10-31T01:42:39;12.40;99.90
13328;DHT22;6733;51.044;3.746;2023-10-31T01:45:05;12.30;99.90
13328;DHT22;6733;51.044;3.746;2023-10-31T01:47:32;12.30;99.90
13328;DHT22;6733;51.044;3.746;2023-10-31T01:49:58;12.30;99.90
13328;DHT22;6733;51.044;3.746;2023-10-31T01:52:25;12.40;99.90
13328;DHT22;6733;51.044;3.746;2023-10-31T01:54:52;12.40;99.90
13328;DHT22;6733;51.044;3.746;2023-10-31T01:57:21;12.40;99.90
13328;DHT22;6733;51.044;3.746;2023-10-31T01:59:48;12.30;99.90
13328;DHT22;6733;51.044;3.746;2023-10-31T02:02:15;12.20;99.90
13328;DHT22;6733;51.044;3.746;2023-10-31T02:04:42;12.10;99.90
13328;DHT22;6733;51.044;3.746;2023-10-31T02:07:08;12.20;99.90
13328;DHT22;6733;51.044;3.746;2023-10-31T02:09:34;12.20;99.90
13328;DHT22;6733;51.044;3.746;2023-10-31T02:12:00;12.20;99.90
13328;DHT22;6733;51.044;3.746;2023-10-31T02:14:26;12.20;99.90
13328;DHT22;6733;51.044;3.746;2023-10-31T02:16:52;12.10;99.90
13328;DHT22;6733;51.044;3.746;2023-10-31T02:19:20;12.00;99.90
13328;DHT22;6733;51.044;3.746;2023-10-31T02:21:46;11.90;99.90
13328;DHT22;6733;51.044;3.746;2023-10-31T02:24:12;11.70;99.90
13328;DHT22;6733;51.044;3.746;2023-10-31T02:26:39;11.70;99.90
13328;DHT22;6733;51.044;3.746;2023-10-31T02:29:05;11.70;99.90
13328;DHT22;6733;51.044;3.746;2023-10-31T02:57:58;11.10;99.90
13328;DHT22;6733;51.044;3.746;2023-10-31T03:00:24;11.00;99.90
13328;DHT22;6733;51.044;3.746;2023-10-31T03:02:51;11.00;99.90
13328;DHT22;6733;51.044;3.746;2023-10-31T03:05:17;11.00;99.90
13328;DHT22;6733;51.044;3.746;2023-10-31T03:07:43;10.90;99.90
13328;DHT22;6733;51.044;3.746;2023-10-31T03:10:11;11.00;99.90
13328;DHT22;6733;51.044;3.746;2023-10-31T03:12:37;10.90;99.90
13328;DHT22;6733;51.044;3.746;2023-10-31T03:15:03;10.90;99.90
13328;DHT22;6733;51.044;3.746;2023-10-31T03:17:30;10.90;99.90
13328;DHT22;6733;51.044;3.746;2023-10-31T03:19:56;10.80;99.90
13328;DHT22;6733;51.044;3.746;2023-10-31T03:22:21;10.90;99.90
13328;DHT22;6733;51.044;3.746;2023-10-31T03:24:47;10.90;99.90
13328;DHT22;6733;51.044;3.746;2023-10-31T03:27:13;10.90;99.90
13328;DHT22;6733;51.044;3.746;2023-10-31T03:29:39;10.90;99.90
13328;DHT22;6733;51.044;3.746;2023-10-31T03:32:05;10.90;99.90
13328;DHT22;6733;51.044;3.746;2023-10-31T03:34:32;10.80;99.90
13328;DHT22;6733;51.044;3.746;2023-10-31T03:36:58;10.80;99.90
13328;DHT22;6733;51.044;3.746;2023-10-31T03:39:24;10.80;99.90
13328;DHT22;6733;51.044;3.746;2023-10-31T03:41:49;10.70;99.90
13328;DHT22;6733;51.044;3.746;2023-10-31T03:44:16;10.80;99.90
13328;DHT22;6733;51.044;3.746;2023-10-31T03:46:42;10.80;99.90
13328;DHT22;6733;51.044;3.746;2023-10-31T03:49:08;10.70;99.90
13328;DHT22;6733;51.044;3.746;2023-10-31T03:51:34;10.70;99.90
13328;DHT22;6733;51.044;3.746;2023-10-31T03:54:00;10.70;99.90
13328;DHT22;6733;51.044;3.746;2023-10-31T03:56:26;10.70;99.90
13328;DHT22;6733;51.044;3.746;2023-10-31T03:58:52;10.70;99.90
13328;DHT22;6733;51.044;3.746;2023-10-31T04:01:19;10.60;99.90
13328;DHT22;6733;51.044;3.746;2023-10-31T04:03:45;10.70;99.90
13328;DHT22;6733;51.044;3.746;2023-10-31T04:06:11;10.70;99.90
13328;DHT22;6733;51.044;3.746;2023-10-31T04:08:37;10.60;99.90
13328;DHT22;6733;51.044;3.746;2023-10-31T04:11:02;10.70;99.90
13328;DHT22;6733;51.044;3.746;2023-10-31T04:13:28;10.70;99.90
13328;DHT22;6733;51.044;3.746;2023-10-31T04:15:54;10.70;99.90
13328;DHT22;6733;51.044;3.746;2023-10-31T04:18:20;10.70;99.90
13328;DHT22;6733;51.044;3.746;2023-10-31T04:20:46;10.70;99.90
13328;DHT22;6733;51.044;3.746;2023-10-31T04:23:12;10.80;99.90
13328;DHT22;6733;51.044;3.746;2023-10-31T04:25:39;10.80;99.90
13328;DHT22;6733;51.044;3.746;2023-10-31T04:28:04;10.80;99.90
13328;DHT22;6733;51.044;3.746;2023-10-31T04:30:30;10.80;99.90
13328;DHT22;6733;51.044;3.746;2023-10-31T04:32:56;10.90;99.90
13328;DHT22;6733;51.044;3.746;2023-10-31T04:35:22;10.90;99.90
13328;DHT22;6733;51.044;3.746;2023-10-31T04:37:48;10.80;99.90
13328;DHT22;6733;51.044;3.746;2023-10-31T04:40:14;10.90;99.90
13328;DHT22;6733;51.044;3.746;2023-10-31T04:42:41;10.80;99.90
13328;DHT22;6733;51.044;3.746;2023-10-31T04:45:08;10.80;99.90
13328;DHT22;6733;51.044;3.746;2023-10-31T04:47:34;10.80;99.90
13328;DHT22;6733;51.044;3.746;2023-10-31T04:50:00;10.70;99.90
13328;DHT22;6733;51.044;3.746;2023-10-31T04:52:26;10.80;99.90
13328;DHT22;6733;51.044;3.746;2023-10-31T04:54:53;10.70;99.90
13328;DHT22;6733;51.044;3.746;2023-10-31T04:57:19;10.70;99.90
13328;DHT22;6733;51.044;3.746;2023-10-31T04:59:45;10.70;99.90
13328;DHT22;6733;51.044;3.746;2023-10-31T05:02:11;10.70;99.90
13328;DHT22;6733;51.044;3.746;2023-10-31T05:04:38;10.70;99.90
13328;DHT22;6733;51.044;3.746;2023-10-31T05:07:05;10.60;99.90
13328;DHT22;6733;51.044;3.746;2023-10-31T05:09:31;10.70;99.90
13328;DHT22;6733;51.044;3.746;2023-10-31T05:11:57;10.70;99.90
13328;DHT22;6733;51.044;3.746;2023-10-31T05:14:24;10.70;99.90
13328;DHT22;6733;51.044;3.746;2023-10-31T05:16:50;10.70;99.90
13328;DHT22;6733;51.044;3.746;2023-10-31T05:19:16;10.70;99.90
13328;DHT22;6733;51.044;3.746;2023-10-31T05:21:42;10.80;99.90
13328;DHT22;6733;51.044;3.746;2023-10-31T05:24:08;10.70;99.90
13328;DHT22;6733;51.044;3.746;2023-10-31T05:26:34;10.80;99.90
13328;DHT22;6733;51.044;3.746;2023-10-31T05:29:01;10.80;99.90
13328;DHT22;6733;51.044;3.746;2023-10-31T05:31:27;10.80;99.90
13328;DHT22;6733;51.044;3.746;2023-10-31T05:33:53;10.80;99.90
13328;DHT22;6733;51.044;3.746;2023-10-31T05:36:21;10.80;99.90
13328;DHT22;6733;51.044;3.746;2023-10-31T05:38:47;10.80;99.90
13328;DHT22;6733;51.044;3.746;2023-10-31T05:41:14;10.80;99.90
13328;DHT22;6733;51.044;3.746;2023-10-31T05:43:41;10.90;99.90
13328;DHT22;6733;51.044;3.746;2023-10-31T05:46:08;10.80;99.90
13328;DHT22;6733;51.044;3.746;2023-10-31T05:48:39;10.90;99.90
13328;DHT22;6733;51.044;3.746;2023-10-31T05:51:14;11.00;99.90
13328;DHT22;6733;51.044;3.746;2023-10-31T05:53:41;10.90;99.90
13328;DHT22;6733;51.044;3.746;2023-10-31T05:56:08;11.00;99.90
13328;DHT22;6733;51.044;3.746;2023-10-31T05:58:36;11.00;99.90
13328;DHT22;6733;51.044;3.746;2023-10-31T06:01:02;11.00;99.90
13328;DHT22;6733;51.044;3.746;2023-10-31T06:03:29;10.90;99.90
13328;DHT22;6733;51.044;3.746;2023-10-31T06:05:55;11.00;99.90
13328;DHT22;6733;51.044;3.746;2023-10-31T06:08:21;11.00;99.90
13328;DHT22;6733;51.044;3.746;2023-10-31T06:10:52;11.00;99.90
13328;DHT22;6733;51.044;3.746;2023-10-31T06:13:19;11.10;99.90
13328;DHT22;6733;51.044;3.746;2023-10-31T06:15:45;11.20;99.90
13328;DHT22;6733;51.044;3.746;2023-10-31T06:18:11;11.20;99.90
13328;DHT22;6733;51.044;3.746;2023-10-31T06:20:38;11.20;99.90
13328;DHT22;6733;51.044;3.746;2023-10-31T06:23:05;11.30;99.90
13328;DHT22;6733;51.044;3.746;2023-10-31T06:25:31;11.40;99.90
13328;DHT22;6733;51.044;3.746;2023-10-31T06:27:58;11.40;99.90
13328;DHT22;6733;51.044;3.746;2023-10-31T06:30:24;11.30;99.90
13328;DHT22;6733;51.044;3.746;2023-10-31T06:32:53;11.40;99.90
13328;DHT22;6733;51.044;3.746;2023-10-31T06:35:20;11.40;99.90
13328;DHT22;6733;51.044;3.746;2023-10-31T06:37:46;11.30;99.90
13328;DHT22;6733;51.044;3.746;2023-10-31T06:40:12;11.40;99.90
13328;DHT22;6733;51.044;3.746;2023-10-31T06:42:38;11.40;99.90
13328;DHT22;6733;51.044;3.746;2023-10-31T06:45:05;11.40;99.90
13328;DHT22;6733;51.044;3.746;2023-10-31T06:47:31;11.50;99.90
13328;DHT22;6733;51.044;3.746;2023-10-31T06:49:57;11.60;99.90
13328;DHT22;6733;51.044;3.746;2023-10-31T06:52:25;11.60;99.90
13328;DHT22;6733;51.044;3.746;2023-10-31T06:54:52;11.60;99.90
13328;DHT22;6733;51.044;3.746;2023-10-31T06:57:18;11.60;99.90
13328;DHT22;6733;51.044;3.746;2023-10-31T06:59:44;11.60;99.90
13328;DHT22;6733;51.044;3.746;2023-10-31T07:02:10;11.70;99.90
13328;DHT22;6733;51.044;3.746;2023-10-31T07:04:36;11.60;99.90
13328;DHT22;6733;51.044;3.746;2023-10-31T07:07:02;11.60;99.90
13328;DHT22;6733;51.044;3.746;2023-10-31T07:09:28;11.60;99.90
13328;DHT22;6733;51.044;3.746;2023-10-31T07:11:55;11.70;99.90
13328;DHT22;6733;51.044;3.746;2023-10-31T07:14:21;11.70;99.90
13328;DHT22;6733;51.044;3.746;2023-10-31T07:16:47;11.70;99.90
13328;DHT22;6733;51.044;3.746;2023-10-31T07:19:14;11.80;99.90
13328;DHT22;6733;51.044;3.746;2023-10-31T07:21:40;11.90;99.90
13328;DHT22;6733;51.044;3.746;2023-10-31T07:26:47;12.20;99.90
13328;DHT22;6733;51.044;3.746;2023-10-31T07:29:13;12.30;99.90
13328;DHT22;6733;51.044;3.746;2023-10-31T07:31:39;12.10;99.90
13328;DHT22;6733;51.044;3.746;2023-10-31T07:34:06;12.30;99.90
13328;DHT22;6733;51.044;3.746;2023-10-31T07:36:33;12.40;99.90
13328;DHT22;6733;51.044;3.746;2023-10-31T07:39:01;12.20;99.90
13328;DHT22;6733;51.044;3.746;2023-10-31T07:41:29;12.50;99.90
13328;DHT22;6733;51.044;3.746;2023-10-31T07:43:55;12.40;99.90
13328;DHT22;6733;51.044;3.746;2023-10-31T07:46:21;12.40;99.90
13328;DHT22;6733;51.044;3.746;2023-10-31T07:48:49;12.40;99.90
13328;DHT22;6733;51.044;3.746;2023-10-31T07:51:15;12.90;99.90
13328;DHT22;6733;51.044;3.746;2023-10-31T07:53:41;12.90;99.90
13328;DHT22;6733;51.044;3.746;2023-10-31T07:56:17;12.90;99.90
13328;DHT22;6733;51.044;3.746;2023-10-31T07:58:44;13.00;99.90
13328;DHT22;6733;51.044;3.746;2023-10-31T08:01:11;13.00;99.90
13328;DHT22;6733;51.044;3.746;2023-10-31T08:03:37;13.00;99.90
13328;DHT22;6733;51.044;3.746;2023-10-31T08:06:05;13.00;99.90
13328;DHT22;6733;51.044;3.746;2023-10-31T08:08:31;13.00;99.90
13328;DHT22;6733;51.044;3.746;2023-10-31T08:10:58;12.90;99.90
13328;DHT22;6733;51.044;3.746;2023-10-31T08:13:25;12.80;99.90
13328;DHT22;6733;51.044;3.746;2023-10-31T08:15:51;12.70;99.90
13328;DHT22;6733;51.044;3.746;2023-10-31T08:18:18;12.60;99.90
13328;DHT22;6733;51.044;3.746;2023-10-31T08:20:44;12.60;99.90
13328;DHT22;6733;51.044;3.746;2023-10-31T08:23:15;13.00;99.90
13328;DHT22;6733;51.044;3.746;2023-10-31T08:25:41;13.10;99.90
13328;DHT22;6733;51.044;3.746;2023-10-31T08:28:08;13.10;99.90
13328;DHT22;6733;51.044;3.746;2023-10-31T08:30:34;13.10;99.90
13328;DHT22;6733;51.044;3.746;2023-10-31T08:33:01;13.20;99.90
13328;DHT22;6733;51.044;3.746;2023-10-31T08:35:27;13.50;99.90
13328;DHT22;6733;51.044;3.746;2023-10-31T08:37:54;13.60;99.90
13328;DHT22;6733;51.044;3.746;2023-10-31T08:40:20;13.50;99.90
13328;DHT22;6733;51.044;3.746;2023-10-31T08:42:46;13.30;99.90
13328;DHT22;6733;51.044;3.746;2023-10-31T08:45:12;13.30;99.90
13328;DHT22;6733;51.044;3.746;2023-10-31T08:47:38;13.10;99.90
13328;DHT22;6733;51.044;3.746;2023-10-31T08:50:05;13.20;99.90
13328;DHT22;6733;51.044;3.746;2023-10-31T08:52:32;13.30;99.90
13328;DHT22;6733;51.044;3.746;2023-10-31T08:54:59;13.10;99.90
13328;DHT22;6733;51.044;3.746;2023-10-31T08:57:25;13.10;99.90
13328;DHT22;6733;51.044;3.746;2023-10-31T08:59:51;13.10;99.90
13328;DHT22;6733;51.044;3.746;2023-10-31T09:02:17;13.20;99.90
13328;DHT22;6733;51.044;3.746;2023-10-31T09:04:43;13.40;99.90
13328;DHT22;6733;51.044;3.746;2023-10-31T09:07:09;13.50;99.90
13328;DHT22;6733;51.044;3.746;2023-10-31T09:09:35;13.60;99.90
13328;DHT22;6733;51.044;3.746;2023-10-31T09:12:01;13.50;99.90
13328;DHT22;6733;51.044;3.746;2023-10-31T09:14:28;13.10;99.90
13328;DHT22;6733;51.044;3.746;2023-10-31T09:16:53;12.80;99.90
13328;DHT22;6733;51.044;3.746;2023-10-31T09:19:19;12.70;99.90
13328;DHT22;6733;51.044;3.746;2023-10-31T09:21:45;12.70;99.90
13328;DHT22;6733;51.044;3.746;2023-10-31T09:24:11;12.70;99.90
13328;DHT22;6733;51.044;3.746;2023-10-31T09:26:42;12.60;99.90
13328;DHT22;6733;51.044;3.746;2023-10-31T09:29:10;12.70;99.90
13328;DHT22;6733;51.044;3.746;2023-10-31T09:31:36;12.70;99.90
13328;DHT22;6733;51.044;3.746;2023-10-31T09:34:03;12.70;99.90
13328;DHT22;6733;51.044;3.746;2023-10-31T09:36:33;12.50;99.90
13328;DHT22;6733;51.044;3.746;2023-10-31T09:39:03;12.50;99.90
13328;DHT22;6733;51.044;3.746;2023-10-31T09:41:29;12.50;99.90
13328;DHT22;6733;51.044;3.746;2023-10-31T09:43:58;12.40;99.90
13328;DHT22;6733;51.044;3.746;2023-10-31T09:46:24;12.50;99.90
13328;DHT22;6733;51.044;3.746;2023-10-31T09:48:50;12.40;99.90
13328;DHT22;6733;51.044;3.746;2023-10-31T09:51:17;12.40;99.90
13328;DHT22;6733;51.044;3.746;2023-10-31T09:53:45;12.40;99.90
13328;DHT22;6733;51.044;3.746;2023-10-31T09:56:11;12.30;99.90
13328;DHT22;6733;51.044;3.746;2023-10-31T09:58:37;12.40;99.90
13328;DHT22;6733;51.044;3.746;2023-10-31T10:01:05;12.30;99.90
13328;DHT22;6733;51.044;3.746;2023-10-31T10:03:31;12.30;99.90
13328;DHT22;6733;51.044;3.746;2023-10-31T10:05:57;12.40;99.90
13328;DHT22;6733;51.044;3.746;2023-10-31T10:08:24;12.40;99.90
13328;DHT22;6733;51.044;3.746;2023-10-31T10:10:51;12.40;99.90
13328;DHT22;6733;51.044;3.746;2023-10-31T10:13:23;12.50;99.90
13328;DHT22;6733;51.044;3.746;2023-10-31T10:15:51;12.60;99.90
13328;DHT22;6733;51.044;3.746;2023-10-31T10:18:34;12.70;99.90
13328;DHT22;6733;51.044;3.746;2023-10-31T10:21:06;12.80;99.90
13328;DHT22;6733;51.044;3.746;2023-10-31T10:23:33;12.90;99.90
13328;DHT22;6733;51.044;3.746;2023-10-31T10:26:01;12.90;99.90
13328;DHT22;6733;51.044;3.746;2023-10-31T10:28:27;12.90;99.90
13328;DHT22;6733;51.044;3.746;2023-10-31T10:30:58;12.90;99.90
13328;DHT22;6733;51.044;3.746;2023-10-31T10:33:24;12.90;99.90
13328;DHT22;6733;51.044;3.746;2023-10-31T10:35:51;12.90;99.90
13328;DHT22;6733;51.044;3.746;2023-10-31T10:38:18;12.90;99.90
13328;DHT22;6733;51.044;3.746;2023-10-31T10:40:48;13.00;99.90
13328;DHT22;6733;51.044;3.746;2023-10-31T10:43:25;12.90;99.90
13328;DHT22;6733;51.044;3.746;2023-10-31T10:45:57;13.00;99.90
13328;DHT22;6733;51.044;3.746;2023-10-31T10:48:25;12.80;99.90
13328;DHT22;6733;51.044;3.746;2023-10-31T10:50:57;12.90;99.90
13328;DHT22;6733;51.044;3.746;2023-10-31T10:53:29;12.90;99.90
13328;DHT22;6733;51.044;3.746;2023-10-31T10:56:00;12.90;99.90
13328;DHT22;6733;51.044;3.746;2023-10-31T10:58:44;12.90;99.90
13328;DHT22;6733;51.044;3.746;2023-10-31T11:01:16;12.90;99.90
13328;DHT22;6733;51.044;3.746;2023-10-31T11:03:45;12.90;99.90
13328;DHT22;6733;51.044;3.746;2023-10-31T11:06:12;12.90;99.90
13328;DHT22;6733;51.044;3.746;2023-10-31T11:08:39;12.90;99.90
13328;DHT22;6733;51.044;3.746;2023-10-31T11:11:06;12.90;99.90
13328;DHT22;6733;51.044;3.746;2023-10-31T11:13:32;12.90;99.90
13328;DHT22;6733;51.044;3.746;2023-10-31T11:16:04;12.90;99.90
13328;DHT22;6733;51.044;3.746;2023-10-31T11:18:32;12.80;99.90
13328;DHT22;6733;51.044;3.746;2023-10-31T11:20:58;12.80;99.90
13328;DHT22;6733;51.044;3.746;2023-10-31T11:23:24;12.80;99.90
13328;DHT22;6733;51.044;3.746;2023-10-31T11:25:50;12.70;99.90
13328;DHT22;6733;51.044;3.746;2023-10-31T11:28:20;12.70;99.90
13328;DHT22;6733;51.044;3.746;2023-10-31T11:30:50;12.80;99.90
13328;DHT22;6733;51.044;3.746;2023-10-31T11:33:20;12.80;99.90
13328;DHT22;6733;51.044;3.746;2023-10-31T11:35:51;12.90;99.90
13328;DHT22;6733;51.044;3.746;2023-10-31T11:38:31;12.90;99.90
13328;DHT22;6733;51.044;3.746;2023-10-31T11:41:00;12.90;99.90
13328;DHT22;6733;51.044;3.746;2023-10-31T11:46:06;12.90;99.90
13328;DHT22;6733;51.044;3.746;2023-10-31T11:48:48;12.90;99.90
13328;DHT22;6733;51.044;3.746;2023-10-31T11:51:16;12.90;99.90
13328;DHT22;6733;51.044;3.746;2023-10-31T11:53:43;13.00;99.90
13328;DHT22;6733;51.044;3.746;2023-10-31T11:56:10;13.00;99.90
13328;DHT22;6733;51.044;3.746;2023-10-31T11:58:37;13.00;99.90
13328;DHT22;6733;51.044;3.746;2023-10-31T12:01:05;13.10;99.90
13328;DHT22;6733;51.044;3.746;2023-10-31T12:03:39;13.30;99.90
13328;DHT22;6733;51.044;3.746;2023-10-31T12:06:07;13.40;99.90
13328;DHT22;6733;51.044;3.746;2023-10-31T12:08:36;13.60;99.90
13328;DHT22;6733;51.044;3.746;2023-10-31T12:11:10;13.70;99.90
13328;DHT22;6733;51.044;3.746;2023-10-31T12:13:38;13.80;99.90
13328;DHT22;6733;51.044;3.746;2023-10-31T12:16:06;13.90;99.90
13328;DHT22;6733;51.044;3.746;2023-10-31T12:18:35;14.10;99.90
13328;DHT22;6733;51.044;3.746;2023-10-31T12:21:03;14.20;99.90
13328;DHT22;6733;51.044;3.746;2023-10-31T12:23:29;14.30;99.90
13328;DHT22;6733;51.044;3.746;2023-10-31T12:25:55;14.40;99.90
13328;DHT22;6733;51.044;3.746;2023-10-31T12:28:23;14.50;99.90
13328;DHT22;6733;51.044;3.746;2023-10-31T12:30:52;14.60;99.90
13328;DHT22;6733;51.044;3.746;2023-10-31T12:33:21;14.60;99.90
13328;DHT22;6733;51.044;3.746;2023-10-31T12:35:48;14.60;99.90
13328;DHT22;6733;51.044;3.746;2023-10-31T12:38:15;14.60;99.90
13328;DHT22;6733;51.044;3.746;2023-10-31T12:40:43;14.60;99.90
13328;DHT22;6733;51.044;3.746;2023-10-31T12:43:10;14.60;99.90
13328;DHT22;6733;51.044;3.746;2023-10-31T12:45:37;14.50;99.90
13328;DHT22;6733;51.044;3.746;2023-10-31T12:48:05;14.40;99.90
13328;DHT22;6733;51.044;3.746;2023-10-31T12:50:32;14.40;99.90
13328;DHT22;6733;51.044;3.746;2023-10-31T12:52:59;14.40;99.90
13328;DHT22;6733;51.044;3.746;2023-10-31T12:55:28;14.30;99.90
13328;DHT22;6733;51.044;3.746;2023-10-31T12:57:55;14.20;99.90
13328;DHT22;6733;51.044;3.746;2023-10-31T13:00:30;14.20;99.90
13328;DHT22;6733;51.044;3.746;2023-10-31T13:03:14;14.20;99.90
13328;DHT22;6733;51.044;3.746;2023-10-31T13:05:41;14.30;99.90
13328;DHT22;6733;51.044;3.746;2023-10-31T13:08:14;14.40;99.90
13328;DHT22;6733;51.044;3.746;2023-10-31T13:10:41;14.50;99.90
13328;DHT22;6733;51.044;3.746;2023-10-31T13:13:09;14.70;99.90
13328;DHT22;6733;51.044;3.746;2023-10-31T13:15:35;15.00;99.90
13328;DHT22;6733;51.044;3.746;2023-10-31T13:18:02;15.10;99.90
13328;DHT22;6733;51.044;3.746;2023-10-31T13:20:28;15.20;99.90
13328;DHT22;6733;51.044;3.746;2023-10-31T13:22:55;15.30;99.90
13328;DHT22;6733;51.044;3.746;2023-10-31T13:25:21;15.40;99.90
13328;DHT22;6733;51.044;3.746;2023-10-31T13:27:47;15.70;99.90
13328;DHT22;6733;51.044;3.746;2023-10-31T13:30:17;16.00;99.90
13328;DHT22;6733;51.044;3.746;2023-10-31T13:32:44;16.40;99.90
13328;DHT22;6733;51.044;3.746;2023-10-31T13:35:10;16.60;99.90
13328;DHT22;6733;51.044;3.746;2023-10-31T13:37:37;16.80;99.90
13328;DHT22;6733;51.044;3.746;2023-10-31T13:40:03;16.80;99.90
13328;DHT22;6733;51.044;3.746;2023-10-31T13:42:30;16.80;99.90
13328;DHT22;6733;51.044;3.746;2023-10-31T13:44:56;16.70;99.90
13328;DHT22;6733;51.044;3.746;2023-10-31T13:47:22;16.40;99.90
13328;DHT22;6733;51.044;3.746;2023-10-31T13:49:48;16.20;99.90
13328;DHT22;6733;51.044;3.746;2023-10-31T13:52:14;16.10;99.90
13328;DHT22;6733;51.044;3.746;2023-10-31T13:54:41;16.00;99.90
13328;DHT22;6733;51.044;3.746;2023-10-31T13:57:07;15.90;99.90
13328;DHT22;6733;51.044;3.746;2023-10-31T13:59:33;15.90;99.90
13328;DHT22;6733;51.044;3.746;2023-10-31T14:02:00;15.90;99.90
13328;DHT22;6733;51.044;3.746;2023-10-31T14:04:26;15.90;99.90
13328;DHT22;6733;51.044;3.746;2023-10-31T14:06:54;15.80;99.90
13328;DHT22;6733;51.044;3.746;2023-10-31T14:09:20;15.80;99.90
13328;DHT22;6733;51.044;3.746;2023-10-31T14:11:47;15.70;99.90
13328;DHT22;6733;51.044;3.746;2023-10-31T14:14:13;15.60;99.90
13328;DHT22;6733;51.044;3.746;2023-10-31T14:16:40;15.60;99.90
13328;DHT22;6733;51.044;3.746;2023-10-31T14:19:07;15.60;99.90
13328;DHT22;6733;51.044;3.746;2023-10-31T14:21:34;15.70;99.90
13328;DHT22;6733;51.044;3.746;2023-10-31T14:24:01;15.80;99.90
13328;DHT22;6733;51.044;3.746;2023-10-31T14:26:29;15.80;99.90
13328;DHT22;6733;51.044;3.746;2023-10-31T14:28:56;15.70;99.90
13328;DHT22;6733;51.044;3.746;2023-10-31T14:31:22;15.60;99.90
13328;DHT22;6733;51.044;3.746;2023-10-31T14:33:48;15.80;99.90
13328;DHT22;6733;51.044;3.746;2023-10-31T14:36:15;15.70;99.90
13328;DHT22;6733;51.044;3.746;2023-10-31T14:38:41;15.60;99.90
13328;DHT22;6733;51.044;3.746;2023-10-31T14:41:08;15.60;99.90
13328;DHT22;6733;51.044;3.746;2023-10-31T14:43:35;15.50;99.90
13328;DHT22;6733;51.044;3.746;2023-10-31T14:46:01;15.40;99.90
13328;DHT22;6733;51.044;3.746;2023-10-31T14:48:28;15.30;99.90
13328;DHT22;6733;51.044;3.746;2023-10-31T14:50:56;15.20;99.90
13328;DHT22;6733;51.044;3.746;2023-10-31T14:53:23;15.10;99.90
13328;DHT22;6733;51.044;3.746;2023-10-31T14:55:49;15.10;99.90
13328;DHT22;6733;51.044;3.746;2023-10-31T14:58:15;15.00;99.90
13328;DHT22;6733;51.044;3.746;2023-10-31T15:00:41;15.20;99.90
13328;DHT22;6733;51.044;3.746;2023-10-31T15:03:07;15.20;99.90
13328;DHT22;6733;51.044;3.746;2023-10-31T15:05:33;15.20;99.90
13328;DHT22;6733;51.044;3.746;2023-10-31T15:07:59;15.30;99.90
13328;DHT22;6733;51.044;3.746;2023-10-31T15:10:26;15.40;99.90
13328;DHT22;6733;51.044;3.746;2023-10-31T15:12:55;15.40;99.90
13328;DHT22;6733;51.044;3.746;2023-10-31T15:15:22;15.40;99.90
13328;DHT22;6733;51.044;3.746;2023-10-31T15:17:49;15.30;99.90
13328;DHT22;6733;51.044;3.746;2023-10-31T15:20:18;15.30;99.90
13328;DHT22;6733;51.044;3.746;2023-10-31T15:22:44;15.20;99.90
13328;DHT22;6733;51.044;3.746;2023-10-31T15:25:11;15.20;99.90
13328;DHT22;6733;51.044;3.746;2023-10-31T15:27:37;15.20;99.90
13328;DHT22;6733;51.044;3.746;2023-10-31T15:30:07;15.20;99.90
13328;DHT22;6733;51.044;3.746;2023-10-31T15:32:37;15.20;99.90
13328;DHT22;6733;51.044;3.746;2023-10-31T15:35:04;15.10;99.90
13328;DHT22;6733;51.044;3.746;2023-10-31T15:37:31;15.10;99.90
13328;DHT22;6733;51.044;3.746;2023-10-31T15:39:58;15.00;99.90
13328;DHT22;6733;51.044;3.746;2023-10-31T15:42:24;15.00;99.90
13328;DHT22;6733;51.044;3.746;2023-10-31T15:44:50;14.90;99.90
13328;DHT22;6733;51.044;3.746;2023-10-31T15:47:16;14.90;99.90
13328;DHT22;6733;51.044;3.746;2023-10-31T15:49:42;14.90;99.90
13328;DHT22;6733;51.044;3.746;2023-10-31T15:52:09;14.80;99.90
13328;DHT22;6733;51.044;3.746;2023-10-31T15:54:35;14.80;99.90
13328;DHT22;6733;51.044;3.746;2023-10-31T15:57:01;14.80;99.90
13328;DHT22;6733;51.044;3.746;2023-10-31T15:59:27;14.80;99.90
13328;DHT22;6733;51.044;3.746;2023-10-31T16:01:53;14.70;99.90
13328;DHT22;6733;51.044;3.746;2023-10-31T16:04:19;14.70;99.90
13328;DHT22;6733;51.044;3.746;2023-10-31T16:06:49;14.70;99.90
13328;DHT22;6733;51.044;3.746;2023-10-31T16:09:15;14.60;99.90
13328;DHT22;6733;51.044;3.746;2023-10-31T16:11:42;14.60;99.90
13328;DHT22;6733;51.044;3.746;2023-10-31T16:14:08;14.50;99.90